Time;durP1;ratioP1;P1;durP2;ratioP2;P2;SDS_P1;SDS_P2;PMS_P1;PMS_P2;Temp;Humidity;BMP_temperature;BMP_pressure;BME280_temperature;BME280_humidity;BME280_pressure;Samples;Min_cycle;Max_cycle;Signal;HPM_P1;HPM_P2
2023/03/04 00:00:58;;;;;;;3.30;2.10;;;;;;;4.67;100.00;99260.84;5113695;27;20598;-61
2023/03/04 00:03:25;;;;;;;1.47;1.20;;;;;;;4.63;100.00;99262.69;5113274;28;20232;-60
2023/03/04 00:05:52;;;;;;;2.10;1.27;;;;;;;4.67;100.00;99264.19;5113756;28;20208;-61
2023/03/04 00:08:19;;;;;;;3.03;2.40;;;;;;;4.71;100.00;99260.66;5113351;28;20609;-64
2023/03/04 00:10:46;;;;;;;4.20;1.80;;;;;;;4.74;100.00;99269.78;5113221;28;20229;-61
2023/03/04 00:13:13;;;;;;;3.73;2.50;;;;;;;4.81;100.00;99267.81;5113484;27;20228;-63
2023/03/04 00:15:40;;;;;;;1.77;1.67;;;;;;;4.76;100.00;99268.84;5113397;28;20665;-62
2023/03/04 00:18:08;;;;;;;1.67;1.57;;;;;;;4.74;100.00;99273.16;5113817;28;20229;-63
2023/03/04 00:20:35;;;;;;;3.53;1.93;;;;;;;4.72;100.00;99272.41;5113240;28;20197;-61
2023/03/04 00:23:02;;;;;;;4.33;1.70;;;;;;;4.82;100.00;99272.00;5113179;28;20220;-60
2023/03/04 00:25:29;;;;;;;7.00;2.33;;;;;;;4.83;100.00;99273.63;5112927;28;20197;-63
2023/03/04 00:27:57;;;;;;;2.23;1.83;;;;;;;4.84;100.00;99271.03;5113087;28;20255;-63
2023/03/04 00:30:24;;;;;;;2.87;1.40;;;;;;;4.79;100.00;99267.06;5112367;28;20282;-63
2023/03/04 00:32:50;;;;;;;3.70;2.07;;;;;;;4.84;100.00;99267.69;5112904;28;20221;-64
2023/03/04 00:35:19;;;;;;;6.57;2.57;;;;;;;4.76;100.00;99258.72;5112890;28;20200;-64
2023/03/04 00:37:46;;;;;;;2.20;1.93;;;;;;;4.75;100.00;99267.22;5113022;28;20639;-60
2023/03/04 00:40:13;;;;;;;1.87;1.50;;;;;;;4.78;100.00;99260.38;5112685;28;20197;-60
2023/03/04 00:42:40;;;;;;;3.03;2.10;;;;;;;4.80;100.00;99263.63;5112635;28;20257;-61
2023/03/04 00:45:08;;;;;;;3.87;1.77;;;;;;;4.79;100.00;99260.28;5113065;28;20200;-60
2023/03/04 00:47:35;;;;;;;4.00;2.03;;;;;;;4.79;100.00;99256.94;5112768;28;20228;-63
2023/03/04 00:50:02;;;;;;;2.97;2.07;;;;;;;4.82;100.00;99251.72;5113033;28;20580;-63
2023/03/04 00:52:30;;;;;;;3.67;3.07;;;;;;;4.89;100.00;99255.63;5112530;28;20221;-63
2023/03/04 00:54:57;;;;;;;1.43;0.97;;;;;;;4.84;100.00;99252.50;5112450;28;20201;-61
2023/03/04 00:57:24;;;;;;;3.70;1.93;;;;;;;4.80;100.00;99249.28;5112475;28;20216;-61
2023/03/04 00:59:51;;;;;;;1.87;1.57;;;;;;;4.87;100.00;99242.22;5112569;28;20700;-61
2023/03/04 01:02:17;;;;;;;5.33;1.60;;;;;;;4.94;100.00;99246.09;5112328;28;20217;-63
2023/03/04 01:04:44;;;;;;;2.07;1.87;;;;;;;4.99;100.00;99239.91;5112353;28;20197;-61
2023/03/04 01:07:11;;;;;;;3.07;2.00;;;;;;;5.02;100.00;99241.47;5112360;28;20221;-63
2023/03/04 01:09:39;;;;;;;3.53;1.97;;;;;;;5.01;100.00;99242.38;5112216;28;20200;-61
2023/03/04 01:12:07;;;;;;;6.00;1.90;;;;;;;5.06;100.00;99235.41;5112536;28;20459;-61
2023/03/04 01:14:33;;;;;;;2.10;1.33;;;;;;;5.08;100.00;99242.91;5112349;28;20197;-61
2023/03/04 01:17:00;;;;;;;2.47;2.13;;;;;;;5.11;100.00;99237.69;5112270;28;20221;-61
2023/03/04 01:19:27;;;;;;;2.10;1.37;;;;;;;5.06;100.00;99237.94;5112422;28;20209;-61
2023/03/04 01:21:54;;;;;;;2.10;1.90;;;;;;;5.04;100.00;99242.25;5111883;28;20205;-64
2023/03/04 01:24:21;;;;;;;3.70;2.00;;;;;;;5.03;100.00;99242.31;5112253;28;20208;-63
2023/03/04 01:26:49;;;;;;;1.60;1.40;;;;;;;4.90;100.00;99244.59;5111866;28;20216;-60
2023/03/04 01:29:16;;;;;;;3.40;1.80;;;;;;;4.93;100.00;99241.91;5112359;28;20224;-64
2023/03/04 01:31:43;;;;;;;3.17;1.70;;;;;;;4.91;100.00;99246.22;5111754;28;20244;-61
2023/03/04 01:34:10;;;;;;;4.80;2.37;;;;;;;4.92;100.00;99253.78;5111921;28;20552;-61
2023/03/04 01:36:37;;;;;;;1.10;1.03;;;;;;;4.82;100.00;99251.72;5111584;28;20197;-63
2023/03/04 01:39:04;;;;;;;3.17;1.63;;;;;;;4.79;100.00;99246.81;5111952;28;20217;-61
2023/03/04 01:41:32;;;;;;;2.53;1.73;;;;;;;4.86;100.00;99243.94;5111682;28;20201;-63
2023/03/04 01:44:01;;;;;;;1.70;1.27;;;;;;;4.86;100.00;99238.84;5111078;28;20224;-61
2023/03/04 01:46:30;;;;;;;2.43;1.57;;;;;;;4.89;100.00;99242.97;5111605;28;20217;-63
2023/03/04 01:48:57;;;;;;;1.87;1.77;;;;;;;4.85;100.00;99246.50;5111928;28;20233;-63
2023/03/04 01:51:24;;;;;;;5.10;1.60;;;;;;;4.86;100.00;99243.09;5111549;28;20625;-61
2023/03/04 01:53:53;;;;;;;2.37;1.57;;;;;;;4.84;100.00;99239.81;5111507;28;20239;-61
2023/03/04 01:56:24;;;;;;;2.50;1.57;;;;;;;4.82;100.00;99237.34;5111152;28;20290;-64
2023/03/04 01:59:15;;;;;;;1.60;1.10;;;;;;;4.88;100.00;99236.25;5111199;28;20217;-63
2023/03/04 02:01:44;;;;;;;1.13;1.03;;;;;;;4.78;100.00;99235.84;5111292;28;20570;-64
2023/03/04 02:04:12;;;;;;;4.73;1.60;;;;;;;4.74;100.00;99240.25;5111437;28;20205;-63
2023/03/04 02:06:41;;;;;;;2.30;1.40;;;;;;;4.69;100.00;99232.03;5110599;28;20197;-61
2023/03/04 02:09:08;;;;;;;1.57;1.27;;;;;;;4.67;100.00;99228.75;5110889;28;20705;-64
2023/03/04 02:11:37;;;;;;;2.43;1.97;;;;;;;4.69;100.00;99226.97;5111183;28;20228;-61
2023/03/04 02:14:04;;;;;;;0.80;0.80;;;;;;;4.65;100.00;99220.38;5111110;28;20220;-61
2023/03/04 02:16:33;;;;;;;4.10;2.13;;;;;;;4.62;100.00;99215.47;5110852;28;20197;-63
2023/03/04 02:19:00;;;;;;;1.00;0.97;;;;;;;4.44;100.00;99216.31;5110699;28;20225;-61
2023/03/04 02:21:30;;;;;;;2.93;1.80;;;;;;;4.53;100.00;99208.28;5110527;28;20635;-60
2023/03/04 02:24:08;;;;;;;2.33;2.10;;;;;;;4.42;100.00;99218.06;5110607;28;20229;-61
2023/03/04 02:26:38;;;;;;;1.67;1.40;;;;;;;4.40;100.00;99212.28;5110926;28;20205;-61
2023/03/04 02:29:05;;;;;;;2.57;1.93;;;;;;;4.26;100.00;99208.66;5111003;28;20197;-60
2023/03/04 02:31:35;;;;;;;2.10;1.80;;;;;;;4.31;100.00;99204.19;5110495;28;20244;-61
2023/03/04 02:34:04;;;;;;;1.60;1.03;;;;;;;4.25;100.00;99199.41;5110537;28;20221;-63
2023/03/04 02:36:33;;;;;;;2.80;1.90;;;;;;;4.30;100.00;99194.97;5110315;28;20201;-63
2023/03/04 02:39:04;;;;;;;1.57;0.60;;;;;;;4.34;100.00;99199.91;5110413;28;20220;-63
2023/03/04 02:41:31;;;;;;;1.43;1.27;;;;;;;4.36;100.00;99203.97;5110389;28;20566;-63
2023/03/04 02:43:59;;;;;;;1.77;1.30;;;;;;;4.30;100.00;99215.22;5110647;28;20648;-61
2023/03/04 02:46:26;;;;;;;2.40;1.70;;;;;;;4.17;100.00;99216.66;5110056;28;20201;-61
2023/03/04 02:48:54;;;;;;;2.10;1.90;;;;;;;4.26;100.00;99208.66;5110493;28;20219;-63
2023/03/04 02:51:21;;;;;;;2.13;1.97;;;;;;;4.29;100.00;99205.97;5110267;28;20228;-61
2023/03/04 02:53:48;;;;;;;2.10;1.83;;;;;;;4.34;100.00;99204.97;5110110;28;20217;-63
2023/03/04 02:56:15;;;;;;;3.57;1.50;;;;;;;4.30;100.00;99210.16;5110165;28;20201;-60
2023/03/04 02:58:42;;;;;;;1.67;1.57;;;;;;;4.34;100.00;99220.97;5110267;28;20221;-63
2023/03/04 03:01:10;;;;;;;2.10;1.90;;;;;;;4.36;100.00;99220.88;5109942;28;20189;-61
2023/03/04 03:03:37;;;;;;;1.50;1.17;;;;;;;4.45;100.00;99223.00;5110163;28;20245;-61
2023/03/04 03:06:04;;;;;;;3.53;2.20;;;;;;;4.32;100.00;99218.50;5110653;28;20197;-61
2023/03/04 03:08:31;;;;;;;3.37;1.70;;;;;;;4.30;100.00;99219.44;5109933;28;20221;-61
2023/03/04 03:10:58;;;;;;;3.03;2.10;;;;;;;4.37;100.00;99223.38;5110183;28;20229;-61
2023/03/04 03:13:24;;;;;;;1.30;1.20;;;;;;;4.42;100.00;99223.13;5110007;28;20220;-61
2023/03/04 03:15:51;;;;;;;2.47;1.90;;;;;;;4.41;100.00;99218.97;5109829;28;20209;-64
2023/03/04 03:18:20;;;;;;;3.47;1.63;;;;;;;4.46;100.00;99224.66;5110188;28;20229;-61
2023/03/04 03:20:46;;;;;;;1.80;1.70;;;;;;;4.44;100.00;99223.91;5109883;28;20201;-64
2023/03/04 03:23:13;;;;;;;4.90;1.90;;;;;;;4.31;100.00;99229.50;5109959;28;20217;-61
2023/03/04 03:25:40;;;;;;;2.23;2.10;;;;;;;4.29;100.00;99217.81;5109942;28;20276;-63
2023/03/04 03:28:07;;;;;;;2.27;2.07;;;;;;;4.31;100.00;99210.97;5109823;28;20216;-60
2023/03/04 03:30:34;;;;;;;1.03;0.80;;;;;;;4.37;100.00;99210.72;5110123;28;20225;-61
2023/03/04 03:33:01;;;;;;;2.37;1.50;;;;;;;4.44;100.00;99211.25;5109662;28;20745;-60
2023/03/04 03:35:29;;;;;;;1.47;1.30;;;;;;;4.52;100.00;99215.06;5109662;28;20205;-64
2023/03/04 03:37:56;;;;;;;6.83;2.13;;;;;;;4.57;100.00;99203.91;5109447;28;20245;-63
2023/03/04 03:40:23;;;;;;;1.83;1.67;;;;;;;4.58;100.00;99203.03;5109778;28;20193;-64
2023/03/04 03:42:49;;;;;;;1.43;1.20;;;;;;;4.63;100.00;99207.00;5109434;28;20731;-60
2023/03/04 03:45:16;;;;;;;2.27;1.40;;;;;;;4.68;100.00;99200.00;5109987;28;20200;-64
2023/03/04 03:47:43;;;;;;;1.40;0.90;;;;;;;4.64;100.00;99202.75;5109472;28;20224;-61
2023/03/04 03:50:11;;;;;;;2.87;1.43;;;;;;;4.68;100.00;99202.53;5109918;28;20201;-64
2023/03/04 03:52:39;;;;;;;3.33;1.60;;;;;;;4.65;100.00;99195.06;5109419;28;20229;-64
2023/03/04 03:55:06;;;;;;;2.40;1.47;;;;;;;4.63;100.00;99201.94;5109805;28;20193;-60
2023/03/04 03:57:33;;;;;;;1.57;1.47;;;;;;;4.67;100.00;99203.41;5109787;28;20213;-63
2023/03/04 04:00:00;;;;;;;2.67;1.80;;;;;;;4.59;100.00;99209.72;5109548;28;20205;-61
2023/03/04 04:02:27;;;;;;;4.70;1.57;;;;;;;4.62;100.00;99205.34;5109531;28;20217;-61
2023/03/04 04:04:54;;;;;;;1.67;0.93;;;;;;;4.61;100.00;99205.41;5109755;28;20202;-61
2023/03/04 04:07:21;;;;;;;2.07;1.27;;;;;;;4.53;100.00;99205.75;5112931;28;20216;-60
2023/03/04 04:09:49;;;;;;;1.50;1.30;;;;;;;4.63;100.00;99206.19;5113279;28;20205;-64
2023/03/04 04:12:18;;;;;;;4.23;1.83;;;;;;;4.68;100.00;99205.06;5113238;28;20236;-60
2023/03/04 04:14:45;;;;;;;3.63;1.80;;;;;;;4.69;100.00;99206.72;5113000;28;20200;-61
2023/03/04 04:17:13;;;;;;;1.10;1.00;;;;;;;4.60;100.00;99199.53;5113157;28;20594;-64
2023/03/04 04:19:41;;;;;;;1.43;1.23;;;;;;;4.53;100.00;99210.81;5112931;28;20254;-61
2023/03/04 04:22:13;;;;;;;2.23;1.43;;;;;;;4.61;100.00;99203.69;5112822;28;20217;-61
2023/03/04 04:24:40;;;;;;;4.20;1.90;;;;;;;4.64;100.00;99206.09;5112939;28;20201;-64
2023/03/04 04:27:08;;;;;;;1.67;1.47;;;;;;;4.70;100.00;99197.38;5112774;28;20605;-63
2023/03/04 04:29:35;;;;;;;3.40;2.00;;;;;;;4.67;100.00;99193.28;5113149;28;20197;-61
2023/03/04 04:32:04;;;;;;;5.53;2.27;;;;;;;4.63;100.00;99196.03;5112815;28;20232;-63
2023/03/04 04:34:31;;;;;;;1.30;1.07;;;;;;;4.60;100.00;99197.00;5112800;28;20197;-64
2023/03/04 04:36:58;;;;;;;1.27;1.17;;;;;;;4.64;100.00;99198.50;5112584;28;20223;-63
2023/03/04 04:39:24;;;;;;;2.07;1.37;;;;;;;4.63;100.00;99191.81;5112931;28;20197;-63
2023/03/04 04:41:51;;;;;;;1.53;1.43;;;;;;;4.58;100.00;99193.72;5112429;28;20193;-60
2023/03/04 04:44:20;;;;;;;2.30;1.70;;;;;;;4.60;100.00;99191.94;5112923;27;20224;-64
2023/03/04 04:46:46;;;;;;;4.00;1.87;;;;;;;4.61;100.00;99188.50;5112434;28;20193;-61
2023/03/04 04:49:13;;;;;;;2.83;1.47;;;;;;;4.60;100.00;99207.13;5112794;28;20197;-61
2023/03/04 04:51:40;;;;;;;2.10;1.70;;;;;;;4.61;100.00;99197.81;5112636;28;20240;-64
2023/03/04 04:54:07;;;;;;;2.07;1.17;;;;;;;4.45;100.00;99205.28;5112905;28;20232;-63
2023/03/04 04:56:34;;;;;;;2.87;1.77;;;;;;;4.41;100.00;99203.78;5112279;28;20189;-61
2023/03/04 04:59:03;;;;;;;2.50;1.43;;;;;;;4.35;100.00;99201.53;5112551;28;20216;-63
2023/03/04 05:01:32;;;;;;;1.40;1.30;;;;;;;4.44;100.00;99201.13;5112135;28;20201;-61
2023/03/04 05:03:59;;;;;;;2.33;1.57;;;;;;;4.44;100.00;99196.88;5112293;27;20217;-61
2023/03/04 05:06:26;;;;;;;1.40;1.30;;;;;;;4.38;100.00;99201.41;5112310;28;20198;-61
2023/03/04 05:08:53;;;;;;;1.87;1.13;;;;;;;4.41;100.00;99206.31;5112353;28;20221;-61
2023/03/04 05:11:20;;;;;;;5.07;2.27;;;;;;;4.39;100.00;99197.97;5112047;28;20243;-61
2023/03/04 05:13:48;;;;;;;1.33;1.23;;;;;;;4.38;100.00;99203.94;5112275;28;20229;-63
2023/03/04 05:16:15;;;;;;;4.37;2.07;;;;;;;4.39;100.00;99208.09;5111790;28;20203;-63
2023/03/04 05:18:43;;;;;;;2.07;1.53;;;;;;;4.41;100.00;99203.78;5112173;28;20229;-63
2023/03/04 05:21:11;;;;;;;2.20;1.60;;;;;;;4.35;100.00;99202.34;5111956;28;20216;-61
2023/03/04 05:23:39;;;;;;;1.50;1.37;;;;;;;4.38;100.00;99207.28;5112090;28;20229;-64
2023/03/04 05:26:08;;;;;;;5.70;2.67;;;;;;;4.32;100.00;99208.38;5111819;28;20193;-63
2023/03/04 05:28:35;;;;;;;2.47;2.13;;;;;;;4.46;100.00;99214.53;5112077;28;20213;-64
2023/03/04 05:31:03;;;;;;;2.63;1.47;;;;;;;4.58;100.00;99211.44;5111647;28;20208;-61
2023/03/04 05:33:30;;;;;;;2.70;2.00;;;;;;;4.45;100.00;99210.34;5111510;28;20431;-61
2023/03/04 05:35:58;;;;;;;1.93;1.80;;;;;;;4.60;100.00;99208.84;5111721;28;20201;-61
2023/03/04 05:38:25;;;;;;;3.80;2.00;;;;;;;4.61;100.00;99202.88;5111244;28;20209;-61
2023/03/04 05:40:58;;;;;;;6.97;1.80;;;;;;;4.70;100.00;99199.91;5111525;28;20197;-61
2023/03/04 05:43:25;;;;;;;2.20;1.20;;;;;;;4.78;100.00;99204.66;5111324;28;20281;-60
2023/03/04 05:45:52;;;;;;;3.27;1.57;;;;;;;4.92;100.00;99214.97;5111388;28;20204;-64
2023/03/04 05:48:19;;;;;;;1.93;1.23;;;;;;;5.09;100.00;99221.72;5111291;28;20235;-60
2023/03/04 05:50:46;;;;;;;2.10;1.53;;;;;;;5.41;100.00;99225.25;5111430;28;20201;-61
2023/03/04 05:53:14;;;;;;;3.60;1.70;;;;;;;5.56;100.00;99232.13;5111034;28;20225;-64
2023/03/04 05:55:46;;;;;;;1.73;1.60;;;;;;;5.87;100.00;99233.13;5111073;28;20595;-61
2023/03/04 05:58:12;;;;;;;2.17;1.77;;;;;;;6.20;100.00;99239.97;5111027;28;20213;-64
2023/03/04 06:00:39;;;;;;;5.70;2.30;;;;;;;6.33;100.00;99240.94;5111120;28;20314;-61
2023/03/04 06:03:06;;;;;;;1.83;1.63;;;;;;;6.41;100.00;99254.06;5111149;28;20217;-61
2023/03/04 06:05:33;;;;;;;1.73;1.37;;;;;;;6.50;100.00;99265.47;5111084;28;20224;-61
2023/03/04 06:08:00;;;;;;;3.20;1.83;;;;;;;6.54;100.00;99275.41;5110976;28;20762;-61
2023/03/04 06:10:28;;;;;;;2.83;1.93;;;;;;;6.62;100.00;99277.50;5111352;28;20204;-64
2023/03/04 06:12:55;;;;;;;2.80;2.23;;;;;;;6.67;100.00;99279.81;5110613;28;20232;-64
2023/03/04 06:15:22;;;;;;;4.07;2.30;;;;;;;6.61;100.00;99280.97;5110655;28;20201;-61
2023/03/04 06:17:49;;;;;;;1.70;1.60;;;;;;;6.42;100.00;99283.63;5110638;28;20221;-61
2023/03/04 06:20:15;;;;;;;4.93;2.13;;;;;;;6.37;100.00;99272.91;5110695;28;20208;-61
2023/03/04 06:22:42;;;;;;;2.00;1.80;;;;;;;6.39;100.00;99275.38;5110735;28;20212;-61
2023/03/04 06:25:10;;;;;;;2.63;1.60;;;;;;;6.44;100.00;99279.31;5110522;28;20692;-61
2023/03/04 06:27:38;;;;;;;4.20;1.40;;;;;;;6.55;100.00;99277.03;5110848;28;20213;-64
2023/03/04 06:30:07;;;;;;;3.27;2.27;;;;;;;6.72;100.00;99277.84;5110537;28;20204;-61
2023/03/04 06:32:34;;;;;;;3.67;1.97;;;;;;;6.87;100.00;99278.75;5110628;28;20229;-64
2023/03/04 06:35:01;;;;;;;4.87;3.07;;;;;;;7.32;100.00;99290.66;5110941;28;20200;-61
2023/03/04 06:37:28;;;;;;;2.77;2.17;;;;;;;7.81;100.00;99298.06;5110189;28;20244;-64
2023/03/04 06:39:55;;;;;;;2.10;1.90;;;;;;;8.34;100.00;99290.75;5110623;28;20593;-64
2023/03/04 06:42:22;;;;;;;5.03;2.87;;;;;;;8.72;100.00;99301.19;5110390;28;20285;-62
2023/03/04 06:44:50;;;;;;;4.87;3.30;;;;;;;8.77;100.00;99289.00;5110573;28;20209;-64
2023/03/04 06:47:17;;;;;;;3.27;2.37;;;;;;;9.12;100.00;99301.28;5110413;28;20213;-64
2023/03/04 06:49:44;;;;;;;2.47;2.27;;;;;;;9.56;100.00;99305.28;5110218;28;20224;-64
2023/03/04 06:52:11;;;;;;;3.70;2.77;;;;;;;9.90;100.00;99303.09;5109907;28;20232;-64
2023/03/04 06:54:39;;;;;;;5.33;3.20;;;;;;;9.55;100.00;99301.13;5110106;28;20232;-64
2023/03/04 06:57:06;;;;;;;5.10;2.33;;;;;;;9.04;100.00;99299.19;5110125;28;20706;-64
2023/03/04 06:59:33;;;;;;;3.80;2.60;;;;;;;9.58;100.00;99308.56;5110472;28;20220;-62
2023/03/04 07:02:01;;;;;;;5.67;3.07;;;;;;;10.03;100.00;99309.03;5109946;28;20220;-64
2023/03/04 07:04:28;;;;;;;4.40;3.47;;;;;;;10.38;100.00;99304.16;5110561;28;20201;-61
2023/03/04 07:06:55;;;;;;;5.00;3.67;;;;;;;10.89;100.00;99298.09;5110024;28;20193;-62
2023/03/04 07:09:22;;;;;;;4.27;3.47;;;;;;;11.15;100.00;99292.88;5110331;28;20197;-61
2023/03/04 07:11:49;;;;;;;5.83;3.73;;;;;;;10.97;100.00;99285.59;5109928;28;20232;-62
2023/03/04 07:14:16;;;;;;;8.83;3.53;;;;;;;11.41;100.00;99285.88;5110472;28;20205;-67
2023/03/04 07:16:42;;;;;;;7.80;4.13;;;;;;;11.35;100.00;99288.91;5110250;28;20565;-65
2023/03/04 07:19:11;;;;;;;8.17;4.90;;;;;;;10.39;100.00;99287.06;5110377;28;20213;-62
2023/03/04 07:21:38;;;;;;;6.40;4.10;;;;;;;10.26;100.00;99288.78;5110007;28;20283;-64
2023/03/04 07:24:05;;;;;;;5.37;3.30;;;;;;;10.78;100.00;99287.78;5110447;28;20217;-63
2023/03/04 07:26:32;;;;;;;4.93;2.83;;;;;;;10.97;100.00;99275.34;5110013;28;20215;-64
2023/03/04 07:28:59;;;;;;;6.73;3.10;;;;;;;10.52;100.00;99285.28;5110178;28;20224;-63
2023/03/04 07:31:44;;;;;;;7.20;3.60;;;;;;;10.67;100.00;99282.59;5109912;28;20203;-63
2023/03/04 07:34:14;;;;;;;6.83;3.07;;;;;;;10.65;100.00;99280.16;5110173;28;20212;-61
2023/03/04 07:36:42;;;;;;;4.50;2.87;;;;;;;10.75;100.00;99270.91;5110168;28;20666;-64
2023/03/04 07:39:10;;;;;;;8.50;3.70;;;;;;;10.35;100.00;99275.41;5110169;28;20198;-64
2023/03/04 07:41:37;;;;;;;7.23;3.17;;;;;;;9.72;100.00;99275.31;5112442;28;20193;-63
2023/03/04 07:44:05;;;;;;;5.20;2.73;;;;;;;9.30;100.00;99269.50;5113955;28;20215;-63
2023/03/04 07:46:32;;;;;;;5.67;2.73;;;;;;;9.26;100.00;99267.25;5113883;28;20699;-61
2023/03/04 07:48:59;;;;;;;5.70;2.00;;;;;;;8.83;100.00;99267.41;5113933;28;20221;-61
2023/03/04 07:51:28;;;;;;;4.87;2.90;;;;;;;8.93;100.00;99268.47;5113972;28;20197;-63
2023/03/04 07:53:57;;;;;;;5.00;2.73;;;;;;;9.63;100.00;99265.69;5112460;28;20320;-61
2023/03/04 07:56:26;;;;;;;3.63;2.60;;;;;;;9.91;100.00;99268.97;5113619;28;20677;-61
2023/03/04 07:58:53;;;;;;;6.13;3.57;;;;;;;9.62;100.00;99269.16;5113719;28;20711;-63
2023/03/04 08:01:22;;;;;;;5.13;2.87;;;;;;;9.52;100.00;99257.94;5113590;28;20197;-63
2023/03/04 08:03:49;;;;;;;4.27;2.73;;;;;;;9.75;100.00;99264.06;5113491;28;20225;-61
2023/03/04 08:06:18;;;;;;;4.37;2.77;;;;;;;10.16;100.00;99263.84;5113649;28;20574;-61
2023/03/04 08:08:48;;;;;;;5.43;3.83;;;;;;;9.73;100.00;99266.72;5113409;28;20213;-63
2023/03/04 08:11:16;;;;;;;7.80;3.00;;;;;;;9.43;100.00;99259.34;5113263;28;20195;-61
2023/03/04 08:13:44;;;;;;;7.10;3.20;;;;;;;9.89;100.00;99255.47;5113291;28;20229;-61
2023/03/04 08:16:14;;;;;;;5.77;3.23;;;;;;;10.44;100.00;99251.78;5113462;28;20197;-64
2023/03/04 08:18:41;;;;;;;9.23;3.93;;;;;;;10.71;100.00;99254.16;5113717;28;20329;-64
2023/03/04 08:21:10;;;;;;;4.27;2.83;;;;;;;11.41;100.00;99255.16;5113794;28;20190;-61
2023/03/04 08:23:36;;;;;;;5.50;3.20;;;;;;;11.49;100.00;99260.53;5113381;28;20593;-64
2023/03/04 08:26:08;;;;;;;8.30;3.50;;;;;;;11.66;100.00;99254.97;5113289;28;20190;-64
2023/03/04 08:28:35;;;;;;;6.20;3.60;;;;;;;11.68;100.00;99250.56;5113323;28;20253;-62
2023/03/04 08:31:02;;;;;;;6.57;3.40;;;;;;;12.53;100.00;99246.75;5113116;28;20189;-61
2023/03/04 08:33:29;;;;;;;7.07;3.70;;;;;;;13.07;96.64;99253.63;5112849;28;20331;-64
2023/03/04 08:35:55;;;;;;;8.83;4.30;;;;;;;12.79;94.57;99242.97;5113004;28;20222;-61
2023/03/04 08:38:22;;;;;;;7.20;4.10;;;;;;;12.56;98.45;99241.38;5112764;28;20221;-61
2023/03/04 08:40:53;;;;;;;8.40;4.23;;;;;;;12.99;100.00;99250.84;5112851;28;20205;-62
2023/03/04 08:43:21;;;;;;;7.17;4.10;;;;;;;13.38;94.35;99241.72;5112953;28;20264;-64
2023/03/04 08:45:49;;;;;;;8.10;4.00;;;;;;;13.17;96.00;99246.78;5112796;28;20750;-62
2023/03/04 08:48:16;;;;;;;7.47;4.03;;;;;;;12.74;98.06;99249.38;5112529;28;20225;-64
2023/03/04 08:50:43;;;;;;;8.87;4.50;;;;;;;12.45;97.03;99245.63;5112658;28;20194;-62
2023/03/04 08:53:10;;;;;;;8.03;4.07;;;;;;;12.30;100.00;99241.66;5112046;28;20622;-64
2023/03/04 08:55:38;;;;;;;5.47;3.70;;;;;;;12.97;100.00;99242.44;5113032;28;20197;-62
2023/03/04 08:58:06;;;;;;;11.47;4.17;;;;;;;13.93;95.74;99244.06;5112440;28;20218;-63
2023/03/04 09:00:35;;;;;;;9.43;4.50;;;;;;;13.24;92.02;99236.88;5112804;28;20195;-64
2023/03/04 09:03:02;;;;;;;9.27;3.90;;;;;;;12.71;94.58;99235.06;5112546;28;20739;-64
2023/03/04 09:05:29;;;;;;;7.00;3.70;;;;;;;12.06;95.77;99238.41;5112735;28;20199;-61
2023/03/04 09:07:57;;;;;;;6.53;3.90;;;;;;;11.53;100.00;99232.03;5112202;28;20213;-64
2023/03/04 09:10:24;;;;;;;4.60;3.07;;;;;;;11.92;100.00;99237.69;5112157;28;20227;-64
2023/03/04 09:12:51;;;;;;;12.27;4.97;;;;;;;11.92;100.00;99224.88;5112210;28;20233;-64
2023/03/04 09:15:18;;;;;;;7.47;3.93;;;;;;;12.06;100.00;99223.03;5112463;28;20251;-61
2023/03/04 09:17:46;;;;;;;7.90;3.87;;;;;;;12.78;96.95;99220.81;5111951;28;20227;-64
2023/03/04 09:20:13;;;;;;;10.67;4.07;;;;;;;13.07;95.08;99222.81;5111993;28;20203;-62
2023/03/04 09:22:42;;;;;;;9.53;4.90;;;;;;;13.03;92.45;99218.84;5111819;28;20210;-64
2023/03/04 09:25:11;;;;;;;5.50;3.57;;;;;;;13.24;95.20;99222.28;5112031;28;20665;-62
2023/03/04 09:27:38;;;;;;;6.10;3.80;;;;;;;13.26;94.47;99220.41;5112058;28;20729;-62
2023/03/04 09:30:06;;;;;;;6.77;3.23;;;;;;;12.67;92.30;99213.16;5112246;28;20191;-64
2023/03/04 09:32:33;;;;;;;7.03;3.77;;;;;;;12.55;92.97;99212.38;5111765;28;20229;-62
2023/03/04 09:35:01;;;;;;;10.70;4.07;;;;;;;12.73;97.65;99212.66;5111661;28;20206;-62
2023/03/04 09:37:28;;;;;;;7.33;3.43;;;;;;;12.98;95.81;99210.72;5111785;28;20219;-64
2023/03/04 09:39:55;;;;;;;6.70;3.73;;;;;;;13.34;93.64;99206.94;5111746;28;20202;-62
2023/03/04 09:42:27;;;;;;;7.17;3.57;;;;;;;13.59;93.20;99205.75;5111525;28;20222;-64
2023/03/04 09:44:55;;;;;;;5.60;3.40;;;;;;;14.09;86.89;99210.16;5112041;28;20200;-62
2023/03/04 09:47:25;;;;;;;5.90;3.27;;;;;;;14.49;85.50;99202.44;5111508;28;20220;-64
2023/03/04 09:49:56;;;;;;;6.90;3.73;;;;;;;15.40;87.86;99195.25;5111455;28;20227;-64
2023/03/04 09:52:38;;;;;;;5.97;3.80;;;;;;;16.35;82.13;99196.81;5109488;28;20274;-65
2023/03/04 09:55:18;;;;;;;8.60;4.57;;;;;;;15.86;81.14;99187.69;5111431;28;20570;-62
2023/03/04 09:57:50;;;;;;;6.70;3.97;;;;;;;15.73;81.13;99198.31;5111028;28;20215;-62
2023/03/04 10:00:23;;;;;;;13.03;4.67;;;;;;;14.95;85.21;99188.09;5111833;28;20198;-62
2023/03/04 10:03:05;;;;;;;7.57;4.43;;;;;;;15.94;85.61;99198.09;5110731;28;20221;-62
2023/03/04 10:05:35;;;;;;;8.97;4.60;;;;;;;15.89;82.82;99185.63;5111852;28;20204;-62
2023/03/04 10:08:18;;;;;;;9.23;4.60;;;;;;;16.36;85.13;99177.78;5111165;28;20224;-62
2023/03/04 10:10:47;;;;;;;8.40;4.20;;;;;;;16.96;80.52;99180.63;5111063;28;20197;-65
2023/03/04 10:13:19;;;;;;;9.23;4.70;;;;;;;15.75;80.37;99180.94;5111086;28;20719;-65
2023/03/04 10:15:50;;;;;;;9.17;5.23;;;;;;;14.90;80.99;99173.09;5111464;28;20187;-62
2023/03/04 10:18:22;;;;;;;10.80;4.10;;;;;;;14.93;83.21;99172.00;5110676;28;20227;-64
2023/03/04 10:21:05;;;;;;;10.83;4.50;;;;;;;14.23;81.39;99159.19;5111847;28;20575;-65
2023/03/04 10:23:36;;;;;;;7.67;4.13;;;;;;;14.24;86.16;99155.66;5111095;28;20209;-65
2023/03/04 10:26:12;;;;;;;5.03;3.77;;;;;;;15.02;85.27;99154.94;5110835;28;20197;-64
2023/03/04 10:28:39;;;;;;;8.27;4.87;;;;;;;14.66;84.22;99155.50;5110620;28;20214;-66
2023/03/04 10:31:14;;;;;;;6.20;4.30;;;;;;;14.59;81.38;99148.44;5110627;28;20193;-64
2023/03/04 10:33:41;;;;;;;6.30;3.90;;;;;;;15.00;82.07;99146.50;5110565;28;20240;-62
2023/03/04 10:36:32;;;;;;;7.40;3.63;;;;;;;15.77;83.04;99142.94;5110547;28;20198;-65
2023/03/04 10:39:03;;;;;;;8.33;4.33;;;;;;;16.22;83.43;99137.00;5110456;28;20215;-62
2023/03/04 10:41:31;;;;;;;9.73;4.27;;;;;;;16.28;82.68;99139.00;5110416;28;20659;-62
2023/03/04 10:44:03;;;;;;;5.60;3.73;;;;;;;16.46;75.10;99137.25;5110454;28;20213;-63
2023/03/04 10:46:30;;;;;;;10.63;4.07;;;;;;;15.45;78.75;99125.28;5110437;28;20227;-65
2023/03/04 10:48:58;;;;;;;7.03;4.13;;;;;;;15.70;77.43;99126.41;5110380;28;20674;-65
2023/03/04 10:51:27;;;;;;;6.47;3.80;;;;;;;15.88;78.74;99111.81;5110328;28;20229;-67
2023/03/04 10:53:58;;;;;;;6.43;3.67;;;;;;;16.07;75.43;99122.00;5110017;28;20232;-62
2023/03/04 10:56:36;;;;;;;6.87;4.03;;;;;;;15.34;74.79;99103.06;5110083;28;20196;-65
2023/03/04 10:59:49;;;;;;;5.27;3.30;;;;;;;15.70;79.15;99105.78;5110371;28;20224;-64
2023/03/04 11:02:27;;;;;;;6.30;3.83;;;;;;;15.71;78.39;99095.34;5096035;28;20711;-62
2023/03/04 11:05:08;;;;;;;7.63;3.97;;;;;;;15.81;77.94;99085.00;5109971;28;20196;-62
2023/03/04 11:07:39;;;;;;;7.10;4.13;;;;;;;15.86;73.39;99082.78;5108556;28;20230;-65
2023/03/04 11:10:11;;;;;;;5.80;3.40;;;;;;;16.35;77.31;99085.03;5110161;28;20199;-65
2023/03/04 11:12:40;;;;;;;4.57;3.43;;;;;;;15.39;74.47;99075.94;5109672;28;20217;-62
2023/03/04 11:15:19;;;;;;;6.20;3.80;;;;;;;15.12;78.14;99074.09;5112828;28;20219;-65
2023/03/04 11:17:50;;;;;;;6.27;3.20;;;;;;;15.72;76.97;99071.19;5116566;27;20279;-62
2023/03/04 11:20:25;;;;;;;6.50;3.20;;;;;;;16.46;76.50;99069.31;5117403;27;20518;-62
2023/03/04 11:22:54;;;;;;;10.07;3.93;;;;;;;16.05;75.53;99069.75;5116561;27;20223;-62
2023/03/04 11:25:26;;;;;;;6.37;3.43;;;;;;;16.43;73.30;99065.25;5117238;27;20193;-63
2023/03/04 11:27:58;;;;;;;8.03;3.90;;;;;;;15.93;75.00;99068.34;5116650;27;20223;-65
2023/03/04 11:30:39;;;;;;;7.63;3.90;;;;;;;15.95;72.46;99071.59;5116549;28;20258;-65
2023/03/04 11:33:14;;;;;;;5.83;3.57;;;;;;;16.00;71.96;99059.09;5116667;27;20229;-64
2023/03/04 11:35:48;;;;;;;6.77;4.40;;;;;;;14.93;77.47;99056.97;5116685;27;20747;-64
2023/03/04 11:38:18;;;;;;;7.50;3.80;;;;;;;14.97;80.69;99049.75;5116459;27;20217;-65